createdAt,value
2022-08-25T00:01:46.207Z,6.68
2022-08-25T00:04:16.455Z,6.22
2022-08-25T00:06:47.398Z,6.10
2022-08-25T00:09:19.254Z,5.85
2022-08-25T00:11:49.532Z,5.80
2022-08-25T00:14:19.705Z,5.72
2022-08-25T00:16:48.635Z,6.07
2022-08-25T00:19:19.525Z,6.03
2022-08-25T00:21:48.268Z,5.20
2022-08-25T00:24:19.768Z,6.20
2022-08-25T00:26:50.731Z,5.40
2022-08-25T00:29:19.295Z,5.78
2022-08-25T00:31:48.011Z,5.60
2022-08-25T00:34:19.857Z,6.20
2022-08-25T00:36:50.896Z,5.80
2022-08-25T00:39:22.000Z,5.72
2022-08-25T00:41:51.516Z,5.95
2022-08-25T00:44:20.618Z,5.75
2022-08-25T00:46:51.151Z,5.93
2022-08-25T00:49:25.235Z,5.68
2022-08-25T00:51:59.763Z,5.53
2022-08-25T00:54:33.206Z,6.00
2022-08-25T00:57:01.863Z,5.00
2022-08-25T00:59:30.475Z,5.80
2022-08-25T01:01:59.613Z,5.55
2022-08-25T01:04:28.197Z,5.53
2022-08-25T01:06:56.855Z,5.95
2022-08-25T01:09:25.586Z,5.72
2022-08-25T01:11:56.010Z,6.75
2022-08-25T01:14:24.637Z,6.50
2022-08-25T01:16:55.227Z,7.45
2022-08-25T01:19:23.681Z,6.55
2022-08-25T01:21:54.122Z,6.38
2022-08-25T01:24:27.222Z,6.20
2022-08-25T01:26:55.621Z,6.25
2022-08-25T01:29:25.620Z,5.85
2022-08-25T01:31:57.960Z,6.13
2022-08-25T01:34:27.332Z,6.07
2022-08-25T01:36:57.847Z,6.43
2022-08-25T01:39:26.760Z,6.07
2022-08-25T01:42:14.362Z,6.00
2022-08-25T01:44:45.179Z,5.70
2022-08-25T01:47:14.066Z,5.43
2022-08-25T01:49:42.524Z,5.88
2022-08-25T01:52:17.526Z,5.40
2022-08-25T01:54:46.247Z,5.75
2022-08-25T01:57:14.693Z,5.38
2022-08-25T01:59:43.174Z,6.15
2022-08-25T02:02:11.690Z,5.88
2022-08-25T02:04:40.811Z,5.43
2022-08-25T02:07:14.665Z,5.28
2022-08-25T02:09:44.319Z,5.88
2022-08-25T02:12:12.995Z,6.15
2022-08-25T02:14:41.653Z,6.57
2022-08-25T02:17:10.862Z,5.47
2022-08-25T02:19:39.362Z,6.15
2022-08-25T02:22:07.810Z,6.07
2022-08-25T02:24:37.921Z,5.93
2022-08-25T02:27:06.618Z,5.90
2022-08-25T02:29:35.076Z,5.85
2022-08-25T02:32:03.841Z,5.80
2022-08-25T02:34:32.287Z,5.80
2022-08-25T02:37:00.884Z,6.07
2022-08-25T02:39:29.436Z,5.88
2022-08-25T02:42:00.073Z,5.70
2022-08-25T02:44:28.475Z,5.90
2022-08-25T02:46:56.912Z,5.43
2022-08-25T02:49:25.441Z,4.78
2022-08-25T02:51:54.741Z,5.53
2022-08-25T02:54:24.088Z,5.25
2022-08-25T02:56:52.546Z,5.18
2022-08-25T02:59:22.406Z,5.32
2022-08-25T03:01:50.860Z,5.75
2022-08-25T03:04:19.466Z,5.72
2022-08-25T03:06:47.940Z,5.72
2022-08-25T03:09:17.145Z,5.32
2022-08-25T03:11:47.461Z,5.47
2022-08-25T03:14:16.478Z,5.82
2022-08-25T03:16:46.700Z,5.45
2022-08-25T03:19:16.917Z,5.45
2022-08-25T03:21:46.208Z,5.40
2022-08-25T03:24:14.700Z,5.57
2022-08-25T03:26:54.432Z,5.85
2022-08-25T03:29:23.695Z,5.75
2022-08-25T03:31:54.933Z,5.72
2022-08-25T03:34:23.925Z,5.07
2022-08-25T03:36:53.667Z,5.43
2022-08-25T03:39:23.521Z,4.97
2022-08-25T03:41:52.142Z,4.80
2022-08-25T03:44:21.056Z,5.60
2022-08-25T03:46:51.206Z,5.28
2022-08-25T03:49:23.725Z,5.75
2022-08-25T03:51:53.988Z,5.65
2022-08-25T03:54:24.180Z,5.38
2022-08-25T03:56:52.921Z,5.85
2022-08-25T03:59:21.508Z,6.03
2022-08-25T04:01:54.454Z,5.45
2022-08-25T04:04:25.020Z,6.38
2022-08-25T04:06:54.101Z,5.60
2022-08-25T04:09:22.678Z,5.47
2022-08-25T04:11:53.370Z,5.97
2022-08-25T04:14:22.606Z,5.43
2022-08-25T04:16:51.142Z,5.47
2022-08-25T04:19:20.356Z,5.10
2022-08-25T04:21:50.282Z,5.13
2022-08-25T04:24:19.259Z,5.85
2022-08-25T04:26:49.810Z,5.82
2022-08-25T04:29:23.978Z,5.88
2022-08-25T04:31:52.729Z,6.22
2022-08-25T04:34:30.358Z,5.05
2022-08-25T04:37:02.942Z,5.07
2022-08-25T04:39:31.930Z,5.43
2022-08-25T04:42:01.046Z,6.20
2022-08-25T04:44:30.227Z,6.28
2022-08-25T04:46:58.754Z,5.82
2022-08-25T04:49:27.354Z,5.40
2022-08-25T04:51:57.498Z,5.53
2022-08-25T04:54:28.323Z,6.20
2022-08-25T04:56:58.057Z,5.85
2022-08-25T04:59:30.298Z,5.75
2022-08-25T05:02:02.654Z,5.72
2022-08-25T05:04:31.739Z,5.97
2022-08-25T05:07:00.615Z,6.60
2022-08-25T05:09:32.536Z,6.57
2022-08-25T05:12:02.371Z,6.10
2022-08-25T05:14:31.742Z,6.13
2022-08-25T05:17:00.490Z,5.82
2022-08-25T05:19:29.324Z,6.15
2022-08-25T05:21:58.324Z,5.80
2022-08-25T05:24:28.071Z,6.20
2022-08-25T05:26:58.225Z,5.57
2022-08-25T05:29:27.140Z,6.50
2022-08-25T05:31:55.916Z,6.97
2022-08-25T05:34:24.937Z,7.75
2022-08-25T05:36:53.365Z,8.00
2022-08-25T05:39:21.882Z,9.32
2022-08-25T05:41:50.316Z,9.98
2022-08-25T05:44:21.378Z,7.57
2022-08-25T05:46:51.407Z,7.57
2022-08-25T05:49:20.166Z,7.55
2022-08-25T05:51:48.749Z,7.35
2022-08-25T05:54:18.396Z,7.20
2022-08-25T05:56:46.838Z,7.35
2022-08-25T05:59:15.264Z,6.43
2022-08-25T06:02:02.558Z,7.15
2022-08-25T06:04:31.163Z,6.53
2022-08-25T06:06:59.624Z,6.38
2022-08-25T06:09:28.100Z,6.75
2022-08-25T06:11:56.601Z,6.53
2022-08-25T06:14:25.188Z,6.63
2022-08-25T06:16:55.600Z,6.65
2022-08-25T06:19:24.363Z,7.00
2022-08-25T06:21:56.324Z,7.10
2022-08-25T06:24:25.067Z,6.75
2022-08-25T06:26:53.676Z,6.72
2022-08-25T06:29:22.380Z,6.65
2022-08-25T06:31:51.039Z,7.20
2022-08-25T06:34:23.895Z,6.68
2022-08-25T06:36:53.278Z,6.28
2022-08-25T06:39:21.874Z,6.60
2022-08-25T06:41:53.907Z,8.05
2022-08-25T06:44:22.538Z,11.98
2022-08-25T06:46:51.184Z,7.97
2022-08-25T06:49:21.527Z,7.53
2022-08-25T06:51:50.714Z,7.68
2022-08-25T06:54:19.175Z,7.85
2022-08-25T06:56:49.619Z,7.55
2022-08-25T06:59:18.896Z,7.80
2022-08-25T07:01:50.110Z,7.18
2022-08-25T07:04:20.477Z,7.10
2022-08-25T07:06:48.973Z,7.72
2022-08-25T07:09:17.417Z,7.93
2022-08-25T07:11:47.009Z,8.13
2022-08-25T07:14:17.983Z,7.82
2022-08-25T07:16:49.630Z,7.63
2022-08-25T07:19:21.497Z,7.78
2022-08-25T07:21:52.692Z,7.05
2022-08-25T07:24:21.634Z,7.82
2022-08-25T07:26:50.218Z,7.20
2022-08-25T07:29:20.215Z,8.07
2022-08-25T07:32:01.305Z,8.45
2022-08-25T07:34:52.040Z,9.55
2022-08-25T07:37:47.752Z,8.77
2022-08-25T07:40:14.407Z,8.73
2022-08-25T07:42:43.285Z,7.28
2022-08-25T07:45:13.135Z,7.53
2022-08-25T07:47:42.319Z,7.90
2022-08-25T07:50:13.407Z,7.40
2022-08-25T07:52:43.270Z,7.50
2022-08-25T07:55:12.361Z,7.68
2022-08-25T07:57:48.935Z,10.10
2022-08-25T08:00:22.896Z,9.48
2022-08-25T08:02:53.238Z,8.98
2022-08-25T08:05:23.821Z,8.75
2022-08-25T08:07:52.658Z,8.13
2022-08-25T08:13:10.578Z,8.68
2022-08-25T08:15:39.256Z,8.73
2022-08-25T08:18:07.817Z,8.82
2022-08-25T08:20:43.138Z,8.98
2022-08-25T08:23:12.074Z,9.73
2022-08-25T08:25:40.717Z,8.02
2022-08-25T08:28:09.998Z,8.55
2022-08-25T08:30:39.647Z,9.27
2022-08-25T08:33:23.168Z,8.02
2022-08-25T08:36:00.251Z,8.40
2022-08-25T08:38:34.742Z,7.90
2022-08-25T08:41:36.739Z,8.05
2022-08-25T08:44:23.147Z,7.68
2022-08-25T08:47:00.764Z,9.13
2022-08-25T08:49:32.839Z,9.27
2022-08-25T08:52:03.445Z,7.53
2022-08-25T08:54:35.256Z,8.50
2022-08-25T08:57:11.268Z,9.00
2022-08-25T08:59:48.704Z,8.90
2022-08-25T09:02:38.775Z,8.70
2022-08-25T09:05:10.724Z,8.00
2022-08-25T09:07:42.900Z,7.88
2022-08-25T09:10:16.621Z,8.98
2022-08-25T09:12:48.197Z,9.85
2022-08-25T09:15:21.525Z,8.15
2022-08-25T09:18:08.696Z,8.90
2022-08-25T09:20:59.892Z,8.52
2022-08-25T09:23:42.506Z,9.43
2022-08-25T09:26:24.199Z,9.88
2022-08-25T09:28:55.344Z,9.70
2022-08-25T09:31:29.484Z,10.70
2022-08-25T09:33:59.479Z,10.38
2022-08-25T09:36:28.728Z,9.55
2022-08-25T09:38:59.079Z,9.30
2022-08-25T09:41:43.156Z,8.75
2022-08-25T09:44:20.968Z,9.68
2022-08-25T09:47:04.648Z,9.88
2022-08-25T09:49:37.667Z,10.23
2022-08-25T09:52:35.576Z,8.93
2022-08-25T09:55:32.453Z,10.80
2022-08-25T09:58:01.352Z,12.45
2022-08-25T10:00:38.294Z,11.50
2022-08-25T10:03:13.299Z,12.18
2022-08-25T10:06:00.990Z,12.40
2022-08-25T10:08:36.293Z,11.25
2022-08-25T10:11:09.688Z,11.93
2022-08-25T10:13:42.244Z,11.38
2022-08-25T10:16:24.354Z,11.43
2022-08-25T10:19:07.220Z,11.73
2022-08-25T10:21:36.264Z,12.23
2022-08-25T10:24:06.208Z,10.75
2022-08-25T10:26:47.776Z,11.70
2022-08-25T10:29:32.804Z,10.45
2022-08-25T10:32:11.504Z,11.18
2022-08-25T10:34:51.368Z,11.48
2022-08-25T10:37:32.696Z,11.38
2022-08-25T10:40:12.865Z,11.35
2022-08-25T10:42:56.916Z,11.57
2022-08-25T10:45:46.156Z,10.55
2022-08-25T10:48:52.066Z,10.70
2022-08-25T10:51:34.505Z,10.52
2022-08-25T10:54:09.265Z,10.30
2022-08-25T10:56:41.591Z,10.00
2022-08-25T10:59:51.064Z,9.88
2022-08-25T11:02:48.938Z,9.20
2022-08-25T11:05:25.133Z,10.63
2022-08-25T11:07:55.888Z,9.55
2022-08-25T11:10:27.195Z,9.88
2022-08-25T11:12:57.273Z,9.30
2022-08-25T11:15:29.633Z,9.13
2022-08-25T11:18:02.277Z,9.18
2022-08-25T11:20:34.620Z,9.63
2022-08-25T11:23:11.504Z,9.30
2022-08-25T11:25:43.421Z,9.25
2022-08-25T11:28:14.751Z,8.85
2022-08-25T11:30:44.974Z,9.27
2022-08-25T11:33:15.985Z,8.32
2022-08-25T11:35:51.273Z,8.70
2022-08-25T11:38:30.179Z,9.10
2022-08-25T11:41:11.222Z,8.88
2022-08-25T11:44:01.735Z,9.52
2022-08-25T11:46:50.420Z,8.95
2022-08-25T11:49:48.754Z,8.35
2022-08-25T11:52:49.299Z,8.07
2022-08-25T11:55:22.996Z,7.90
2022-08-25T11:57:53.883Z,7.65
2022-08-25T12:00:41.091Z,8.25
2022-08-25T12:03:52.617Z,7.38
2022-08-25T12:06:31.520Z,7.07
2022-08-25T12:09:22.942Z,7.07
2022-08-25T12:11:55.121Z,6.85
2022-08-25T12:14:46.260Z,6.82
2022-08-25T12:17:27.048Z,6.97
2022-08-25T12:19:59.465Z,6.72
2022-08-25T12:22:58.415Z,6.38
2022-08-25T12:25:51.386Z,6.82
2022-08-25T12:28:39.150Z,6.93
2022-08-25T12:31:17.540Z,7.43
2022-08-25T12:33:59.473Z,7.05
2022-08-25T12:36:31.563Z,7.10
2022-08-25T12:39:19.860Z,7.78
2022-08-25T12:41:57.473Z,7.93
2022-08-25T12:44:42.363Z,6.32
2022-08-25T12:47:28.413Z,7.18
2022-08-25T12:50:37.835Z,6.43
2022-08-25T12:53:13.700Z,7.35
2022-08-25T12:55:47.808Z,6.90
2022-08-25T12:58:17.204Z,7.38
2022-08-25T13:01:06.945Z,6.47
2022-08-25T13:03:55.347Z,7.18
2022-08-25T13:06:42.519Z,6.50
2022-08-25T13:10:00.208Z,6.43
2022-08-25T13:12:32.481Z,6.55
2022-08-25T13:15:01.239Z,6.32
2022-08-25T13:17:33.802Z,7.15
2022-08-25T13:20:20.022Z,6.90
2022-08-25T13:22:53.983Z,6.25
2022-08-25T13:25:31.920Z,6.85
2022-08-25T13:28:03.217Z,5.85
2022-08-25T13:30:34.364Z,6.40
2022-08-25T13:33:20.066Z,6.05
2022-08-25T13:35:50.135Z,6.38
2022-08-25T13:38:20.163Z,5.97
2022-08-25T13:40:50.396Z,5.78
2022-08-25T13:43:27.432Z,5.82
2022-08-25T13:46:01.130Z,5.82
2022-08-25T13:48:37.596Z,5.95
2022-08-25T13:51:18.400Z,5.40
2022-08-25T13:53:55.734Z,5.88
2022-08-25T13:56:40.051Z,5.43
2022-08-25T13:59:22.126Z,6.28
2022-08-25T14:01:50.789Z,5.85
2022-08-25T14:04:27.667Z,5.50
2022-08-25T14:07:34.379Z,5.90
2022-08-25T14:10:05.321Z,5.95
2022-08-25T14:12:39.571Z,5.05
2022-08-25T14:15:16.576Z,5.60
2022-08-25T14:20:25.709Z,5.15
2022-08-25T14:22:58.096Z,5.78
2022-08-25T14:25:27.421Z,5.63
2022-08-25T14:28:16.479Z,5.05
2022-08-25T14:30:47.332Z,5.53
2022-08-25T14:33:16.952Z,5.10
2022-08-25T14:35:48.546Z,5.57
2022-08-25T14:38:17.575Z,4.78
2022-08-25T14:40:46.152Z,5.15
2022-08-25T14:43:18.088Z,5.20
2022-08-25T14:45:52.465Z,5.55
2022-08-25T14:48:26.064Z,5.60
2022-08-25T14:50:54.872Z,5.10
2022-08-25T14:53:23.459Z,5.50
2022-08-25T14:55:58.794Z,4.70
2022-08-25T14:58:33.927Z,5.38
2022-08-25T15:01:03.129Z,5.32
2022-08-25T15:03:34.275Z,5.28
2022-08-25T15:06:04.297Z,5.18
2022-08-25T15:08:50.558Z,4.90
2022-08-25T15:11:19.186Z,4.90
2022-08-25T15:13:49.779Z,4.68
2022-08-25T15:16:34.061Z,4.93
2022-08-25T15:19:06.660Z,4.80
2022-08-25T15:21:36.671Z,4.72
2022-08-25T15:24:05.922Z,5.97
2022-08-25T15:26:38.939Z,4.82
2022-08-25T15:29:08.981Z,5.68
2022-08-25T15:31:40.086Z,7.03
2022-08-25T15:34:11.642Z,6.30
2022-08-25T15:36:40.723Z,6.40
2022-08-25T15:39:10.563Z,6.50
2022-08-25T15:41:39.819Z,4.75
2022-08-25T15:44:12.675Z,5.65
2022-08-25T15:46:47.042Z,5.18
2022-08-25T15:49:20.884Z,4.85
2022-08-25T15:51:54.223Z,5.10
2022-08-25T15:54:23.913Z,5.45
2022-08-25T15:56:55.535Z,5.40
2022-08-25T15:59:26.771Z,5.50
2022-08-25T16:01:56.494Z,6.55
2022-08-25T16:04:26.425Z,5.20
2022-08-25T16:06:55.637Z,5.25
2022-08-25T16:09:24.260Z,5.80
2022-08-25T16:11:56.288Z,5.50
2022-08-25T16:14:28.049Z,5.30
2022-08-25T16:16:58.218Z,5.60
2022-08-25T16:19:27.746Z,6.80
2022-08-25T16:21:56.290Z,6.18
2022-08-25T16:24:25.005Z,5.50
2022-08-25T16:26:55.814Z,6.13
2022-08-25T16:29:24.591Z,6.22
2022-08-25T16:31:55.129Z,5.30
2022-08-25T16:34:28.735Z,6.25
2022-08-25T16:36:59.605Z,6.07
2022-08-25T16:39:28.497Z,5.72
2022-08-25T16:41:57.132Z,6.63
2022-08-25T16:44:25.863Z,5.50
2022-08-25T16:46:56.740Z,5.65
2022-08-25T16:49:25.512Z,5.88
2022-08-25T16:51:57.221Z,5.40
2022-08-25T16:54:43.959Z,5.28
2022-08-25T16:57:12.822Z,5.30
2022-08-25T16:59:43.922Z,5.47
2022-08-25T17:02:13.939Z,6.05
2022-08-25T17:04:42.391Z,6.45
2022-08-25T17:07:11.106Z,6.10
2022-08-25T17:09:39.654Z,5.78
2022-08-25T17:12:09.335Z,5.93
2022-08-25T17:14:37.789Z,5.72
2022-08-25T17:17:07.186Z,6.78
2022-08-25T17:19:37.203Z,5.70
2022-08-25T17:22:07.460Z,6.57
2022-08-25T17:24:36.076Z,6.30
2022-08-25T17:27:08.977Z,6.65
2022-08-25T17:29:37.884Z,6.35
2022-08-25T17:32:07.064Z,5.40
2022-08-25T17:34:37.010Z,6.38
2022-08-25T17:37:05.766Z,6.35
2022-08-25T17:39:34.366Z,5.93
2022-08-25T17:42:03.146Z,6.05
2022-08-25T17:44:31.674Z,7.28
2022-08-25T17:47:00.515Z,7.65
2022-08-25T17:49:29.266Z,7.15
2022-08-25T17:51:59.959Z,6.90
2022-08-25T17:54:28.914Z,6.50
2022-08-25T17:56:58.219Z,7.10
2022-08-25T17:59:27.786Z,6.88
2022-08-25T18:02:02.373Z,6.95
2022-08-25T18:04:30.924Z,6.82
2022-08-25T18:07:00.796Z,7.93
2022-08-25T18:09:29.423Z,6.95
2022-08-25T18:11:57.998Z,7.35
2022-08-25T18:14:26.531Z,6.95
2022-08-25T18:16:55.263Z,6.90
2022-08-25T18:19:23.780Z,7.35
2022-08-25T18:21:52.457Z,6.72
2022-08-25T18:24:23.527Z,7.53
2022-08-25T18:26:52.604Z,7.47
2022-08-25T18:29:21.177Z,7.30
2022-08-25T18:31:51.885Z,7.43
2022-08-25T18:34:22.207Z,7.47
2022-08-25T18:36:51.333Z,7.65
2022-08-25T18:39:39.873Z,7.22
2022-08-25T18:42:08.818Z,7.20
2022-08-25T18:44:37.281Z,7.22
2022-08-25T18:47:07.808Z,7.60
2022-08-25T18:49:37.198Z,7.38
2022-08-25T18:52:07.491Z,6.95
2022-08-25T18:54:37.436Z,7.80
2022-08-25T18:57:08.322Z,7.00
2022-08-25T18:59:38.074Z,7.65
2022-08-25T19:02:07.560Z,7.60
2022-08-25T19:04:36.177Z,7.10
2022-08-25T19:07:04.971Z,7.10
2022-08-25T19:09:37.708Z,7.97
2022-08-25T19:12:06.806Z,7.88
2022-08-25T19:14:40.502Z,7.68
2022-08-25T19:17:09.816Z,7.43
2022-08-25T19:19:38.845Z,7.80
2022-08-25T19:22:16.596Z,7.93
2022-08-25T19:24:56.791Z,8.88
2022-08-25T19:27:25.303Z,8.18
2022-08-25T19:29:53.813Z,8.82
2022-08-25T19:32:22.910Z,7.95
2022-08-25T19:34:54.800Z,8.75
2022-08-25T19:37:27.001Z,7.57
2022-08-25T19:39:57.844Z,7.60
2022-08-25T19:42:35.039Z,7.50
2022-08-25T19:45:07.023Z,7.93
2022-08-25T19:47:35.474Z,8.40
2022-08-25T19:50:04.045Z,8.15
2022-08-25T19:52:32.678Z,8.05
2022-08-25T19:55:03.165Z,7.63
2022-08-25T19:57:43.086Z,7.50
2022-08-25T20:00:15.422Z,7.60
2022-08-25T20:02:44.034Z,7.53
2022-08-25T20:05:13.340Z,8.45
2022-08-25T20:07:42.082Z,7.70
2022-08-25T20:10:14.211Z,7.72
2022-08-25T20:12:44.757Z,8.20
2022-08-25T20:15:14.634Z,7.95
2022-08-25T20:17:46.132Z,8.10
2022-08-25T20:20:16.746Z,7.45
2022-08-25T20:22:45.863Z,7.80
2022-08-25T20:25:18.822Z,8.95
2022-08-25T20:27:49.649Z,8.60
2022-08-25T20:30:21.700Z,9.27
2022-08-25T20:32:50.908Z,9.43
2022-08-25T20:35:19.971Z,8.98
2022-08-25T20:37:55.217Z,9.32
2022-08-25T20:40:27.190Z,9.68
2022-08-25T20:42:55.786Z,10.23
2022-08-25T20:45:24.581Z,10.55
2022-08-25T20:47:53.154Z,10.18
2022-08-25T20:50:22.935Z,10.05
2022-08-25T20:52:52.456Z,9.63
2022-08-25T20:55:21.846Z,10.25
2022-08-25T20:57:51.805Z,9.52
2022-08-25T21:00:24.807Z,9.35
2022-08-25T21:02:54.195Z,10.45
2022-08-25T21:05:22.873Z,10.35
2022-08-25T21:07:51.348Z,10.65
2022-08-25T21:10:20.093Z,10.85
2022-08-25T21:12:49.458Z,12.32
2022-08-25T21:15:23.815Z,11.95
2022-08-25T21:17:54.413Z,11.75
2022-08-25T21:20:24.120Z,13.10
2022-08-25T21:22:53.322Z,12.25
2022-08-25T21:25:22.084Z,13.38
2022-08-25T21:27:50.597Z,13.43
2022-08-25T21:30:19.231Z,13.63
2022-08-25T21:32:53.442Z,13.13
2022-08-25T21:35:23.449Z,12.30
2022-08-25T21:37:53.060Z,13.05
2022-08-25T21:40:22.741Z,13.73
2022-08-25T21:42:51.946Z,12.95
2022-08-25T21:45:21.760Z,13.90
2022-08-25T21:47:52.567Z,14.63
2022-08-25T21:50:21.495Z,14.27
2022-08-25T21:52:54.658Z,14.57
2022-08-25T21:55:23.530Z,14.55
2022-08-25T21:57:52.693Z,14.63
2022-08-25T22:00:22.445Z,14.48
2022-08-25T22:02:53.083Z,13.60
2022-08-25T22:05:21.688Z,12.95
2022-08-25T22:07:50.336Z,12.73
2022-08-25T22:10:20.972Z,12.52
2022-08-25T22:12:51.160Z,11.60
2022-08-25T22:15:19.668Z,12.60
2022-08-25T22:17:48.401Z,10.85
2022-08-25T22:20:18.561Z,10.73
2022-08-25T22:22:47.080Z,11.75
2022-08-25T22:25:16.003Z,11.35
2022-08-25T22:27:44.758Z,10.23
2022-08-25T22:30:15.696Z,10.60
2022-08-25T22:32:45.608Z,10.65
2022-08-25T22:35:14.157Z,10.65
2022-08-25T22:37:44.181Z,11.35
2022-08-25T22:40:14.028Z,12.07
2022-08-25T22:42:47.467Z,11.45
2022-08-25T22:45:16.514Z,11.65
2022-08-25T22:47:45.252Z,10.82
2022-08-25T22:50:13.908Z,11.30
2022-08-25T22:52:47.208Z,11.00
2022-08-25T22:55:16.385Z,10.70
2022-08-25T22:57:44.956Z,10.10
2022-08-25T23:00:15.232Z,10.70
2022-08-25T23:02:44.716Z,9.63
2022-08-25T23:05:14.435Z,9.98
2022-08-25T23:07:43.076Z,9.75
2022-08-25T23:10:13.498Z,9.75
2022-08-25T23:12:43.923Z,9.85
2022-08-25T23:15:14.187Z,9.32
2022-08-25T23:17:42.780Z,9.55
2022-08-25T23:20:25.792Z,9.43
2022-08-25T23:22:54.464Z,9.60
2022-08-25T23:25:24.402Z,9.57
2022-08-25T23:27:53.134Z,9.55
2022-08-25T23:30:21.798Z,9.45
2022-08-25T23:32:50.349Z,9.48
2022-08-25T23:35:19.356Z,9.25
2022-08-25T23:37:48.595Z,9.68
2022-08-25T23:40:19.629Z,9.18
2022-08-25T23:42:49.912Z,8.70
2022-08-25T23:45:19.027Z,9.63
2022-08-25T23:47:47.508Z,9.50
2022-08-25T23:50:18.738Z,9.75
2022-08-25T23:52:47.831Z,9.60
2022-08-25T23:55:16.368Z,10.45
2022-08-25T23:57:45.132Z,9.93
